CST,Max TemperatureF,Mean TemperatureF,Min TemperatureF,Max Dew PointF,MeanDew PointF,Min DewpointF,Max Humidity, Mean Humidity, Min Humidity, Max Sea Level PressureIn, Mean Sea Level PressureIn, Min Sea Level PressureIn, Max VisibilityMiles, Mean VisibilityMiles, Min VisibilityMiles, Max Wind SpeedMPH, Mean Wind SpeedMPH, Max Gust SpeedMPH,PrecipitationIn, CloudCover, Events, WindDirDegrees
2012-11-1,73,58,43,51,44,39,93,74,33,30.09,30.03,29.99,10,6,0,6,1,,0.00,0,Fog,330
2012-11-2,84,62,42,62,53,39,94,78,44,30.09,30.04,29.99,10,8,2,8,2,,0.00,0,,239
2012-11-3,84,68,53,63,56,51,97,82,42,30.14,30.08,30.05,10,6,0,7,1,,0.00,3,Fog,244
2012-11-4,81,66,53,62,54,51,100,81,42,30.12,30.08,30.03,10,7,0,9,1,16,0.01,1,Fog,323
2012-11-5,69,56,42,52,43,34,93,79,27,30.12,30.06,29.94,10,6,1,8,2,29,0.14,2,Rain,25
2012-11-6,59,54,48,48,46,45,94,79,62,30.03,29.99,29.93,10,10,7,9,5,18,0.00,6,,341
2012-11-7,63,54,44,46,40,35,90,64,39,30.14,30.04,29.95,10,10,7,10,4,16,0.00,3,,331
2012-11-8,64,50,37,43,38,34,89,72,37,30.26,30.21,30.14,10,9,5,8,2,,0.00,0,,352
2012-11-9,71,52,33,47,38,30,93,71,27,30.33,30.26,30.22,10,8,5,4,0,,0.03,0,,-1
2012-11-10,73,54,35,50,43,33,93,73,37,30.35,30.29,30.25,10,8,2,8,1,,0.00,0,,166
2012-11-11,77,59,41,54,48,39,93,73,43,30.32,30.26,30.21,10,9,6,16,3,21,0.00,2,,141
2012-11-12,72,60,46,65,56,40,94,86,76,30.34,30.25,30.16,10,8,1,14,6,21,0.33,6,Rain,338
2012-11-13,60,48,37,39,34,30,89,66,33,30.40,30.32,30.27,10,10,10,14,7,21,0.00,0,,346
2012-11-14,61,48,36,50,44,31,86,77,67,30.31,30.26,30.22,10,10,9,7,4,,0.00,6,,12
2012-11-15,55,48,41,49,45,38,93,82,67,30.29,30.25,30.23,10,8,4,10,2,,0.00,5,,44
2012-11-16,63,50,37,47,42,35,93,81,52,30.33,30.28,30.23,10,7,3,13,3,16,0.00,4,,23
2012-11-17,64,48,33,44,37,30,93,75,37,30.38,30.33,30.29,10,8,2,13,3,22,0.00,0,,21
2012-11-18,66,51,36,45,39,33,93,73,42,30.36,30.31,30.26,10,10,8,9,2,,0.00,0,,28
2012-11-19,69,53,37,49,42,34,93,76,40,30.31,30.25,30.19,10,9,5,7,1,,0.00,0,,17
2012-11-20,66,52,39,51,45,37,93,78,54,30.22,30.17,30.12,10,9,4,5,0,,0.00,2,,337
2012-11-21,75,58,41,50,45,38,93,73,38,30.21,30.17,30.12,10,8,5,9,2,,0.00,1,,341
2012-11-22,73,56,39,52,45,37,93,75,35,30.27,30.21,30.17,10,7,2,6,0,,0.00,0,,220
2012-11-23,75,57,39,54,45,37,93,75,38,30.27,30.21,30.13,10,7,1,8,1,17,0.00,1,,307
2012-11-24,57,45,30,44,31,24,89,60,27,30.28,30.22,30.18,10,10,10,12,6,20,0.00,0,,343
2012-11-25,63,46,28,36,28,22,88,64,21,30.27,30.19,30.13,10,10,10,5,1,,0.00,0,,170
2012-11-26,71,50,30,53,42,27,89,74,51,30.23,30.18,30.14,10,10,10,10,2,,0.00,1,,164
2012-11-27,62,56,50,59,54,47,97,90,82,30.28,30.18,30.11,10,6,2,13,3,22,0.40,8,Rain,332
2012-11-28,61,48,34,47,39,31,93,74,38,30.42,30.36,30.29,10,8,4,8,6,,0.00,3,,353
2012-11-29,57,44,30,43,37,28,93,81,59,30.43,30.36,30.32,10,7,3,8,1,,0.00,2,,74
2012-11-30,72,56,39,55,48,38,93,82,51,30.35,30.29,30.23,10,6,2,5,0,,0.00,4,Rain,65